sensor_id;sensor_type;location;lat;lon;timestamp;pressure;altitude;pressure_sealevel;temperature;humidity
141;BME280;65;48.778;9.160;2023-06-10T00:00:15;98107.94;;;18.13;71.72
141;BME280;65;48.778;9.160;2023-06-10T00:03:01;98106.59;;;17.99;71.60
141;BME280;65;48.778;9.160;2023-06-10T00:05:47;98106.31;;;17.92;72.80
141;BME280;65;48.778;9.160;2023-06-10T00:08:33;98111.53;;;17.94;72.10
141;BME280;65;48.778;9.160;2023-06-10T00:11:19;98103.22;;;17.87;71.38
141;BME280;65;48.778;9.160;2023-06-10T00:14:05;98110.81;;;17.82;73.66
141;BME280;65;48.778;9.160;2023-06-10T00:16:51;98108.03;;;17.74;73.52
141;BME280;65;48.778;9.160;2023-06-10T00:19:37;98106.63;;;17.70;73.40
141;BME280;65;48.778;9.160;2023-06-10T00:22:27;98103.25;;;17.68;76.59
141;BME280;65;48.778;9.160;2023-06-10T00:25:15;98106.47;;;17.62;75.31
141;BME280;65;48.778;9.160;2023-06-10T00:28:01;98098.75;;;17.59;75.44
141;BME280;65;48.778;9.160;2023-06-10T00:30:46;98105.34;;;17.55;76.09
141;BME280;65;48.778;9.160;2023-06-10T00:33:32;98101.56;;;17.48;77.40
141;BME280;65;48.778;9.160;2023-06-10T00:36:18;98101.31;;;17.41;77.01
141;BME280;65;48.778;9.160;2023-06-10T00:39:04;98111.44;;;17.37;77.59
141;BME280;65;48.778;9.160;2023-06-10T00:41:50;98100.47;;;17.41;78.92
141;BME280;65;48.778;9.160;2023-06-10T00:44:36;98101.88;;;17.35;78.37
141;BME280;65;48.778;9.160;2023-06-10T00:47:22;98110.13;;;17.32;79.85
141;BME280;65;48.778;9.160;2023-06-10T00:50:08;98103.25;;;17.29;78.65
141;BME280;65;48.778;9.160;2023-06-10T00:52:55;98103.66;;;17.25;78.67
141;BME280;65;48.778;9.160;2023-06-10T00:55:41;98108.59;;;17.20;80.30
141;BME280;65;48.778;9.160;2023-06-10T00:58:27;98106.34;;;17.15;81.07
141;BME280;65;48.778;9.160;2023-06-10T01:01:13;98101.84;;;17.16;81.27
141;BME280;65;48.778;9.160;2023-06-10T01:03:58;98110.97;;;17.13;80.42
141;BME280;65;48.778;9.160;2023-06-10T01:07:28;98108.31;;;17.13;80.75
141;BME280;65;48.778;9.160;2023-06-10T01:10:28;98102.69;;;17.06;80.33
141;BME280;65;48.778;9.160;2023-06-10T01:13:17;98096.78;;;17.03;82.23
141;BME280;65;48.778;9.160;2023-06-10T01:16:12;98092.00;;;16.97;82.71
141;BME280;65;48.778;9.160;2023-06-10T01:18:58;98098.59;;;16.93;83.39
141;BME280;65;48.778;9.160;2023-06-10T01:21:45;98102.25;;;16.92;83.05
141;BME280;65;48.778;9.160;2023-06-10T01:24:34;98097.63;;;16.94;82.23
141;BME280;65;48.778;9.160;2023-06-10T01:27:21;98100.44;;;16.92;82.97
141;BME280;65;48.778;9.160;2023-06-10T01:30:13;98099.03;;;16.88;83.90
141;BME280;65;48.778;9.160;2023-06-10T01:33:01;98094.53;;;16.89;84.49
141;BME280;65;48.778;9.160;2023-06-10T01:35:48;98096.91;;;16.82;84.36
141;BME280;65;48.778;9.160;2023-06-10T01:38:46;98094.53;;;16.89;85.97
141;BME280;65;48.778;9.160;2023-06-10T01:41:33;98092.00;;;16.87;85.40
141;BME280;65;48.778;9.160;2023-06-10T01:44:21;98102.09;;;16.84;84.32
141;BME280;65;48.778;9.160;2023-06-10T01:47:08;98098.75;;;16.82;84.22
141;BME280;65;48.778;9.160;2023-06-10T01:49:54;98102.38;;;16.81;84.43
141;BME280;65;48.778;9.160;2023-06-10T01:52:40;98102.53;;;16.79;86.01
141;BME280;65;48.778;9.160;2023-06-10T01:55:25;98103.88;;;16.73;84.49
141;BME280;65;48.778;9.160;2023-06-10T01:58:11;98101.63;;;16.69;85.93
141;BME280;65;48.778;9.160;2023-06-10T02:00:58;98114.41;;;16.65;85.88
141;BME280;65;48.778;9.160;2023-06-10T02:03:43;98112.78;;;16.84;86.06
141;BME280;65;48.778;9.160;2023-06-10T02:06:29;98114.19;;;16.78;85.90
141;BME280;65;48.778;9.160;2023-06-10T02:09:15;98106.56;;;16.73;84.57
141;BME280;65;48.778;9.160;2023-06-10T02:12:04;98113.53;;;16.65;85.46
141;BME280;65;48.778;9.160;2023-06-10T02:14:51;98112.69;;;16.64;86.60
141;BME280;65;48.778;9.160;2023-06-10T02:17:37;98119.41;;;16.59;86.57
141;BME280;65;48.778;9.160;2023-06-10T02:20:23;98112.25;;;16.59;87.40
141;BME280;65;48.778;9.160;2023-06-10T02:23:08;98111.56;;;16.57;86.14
141;BME280;65;48.778;9.160;2023-06-10T02:25:54;98116.44;;;16.52;85.86
141;BME280;65;48.778;9.160;2023-06-10T02:28:43;98119.81;;;16.54;87.44
141;BME280;65;48.778;9.160;2023-06-10T02:31:29;98123.63;;;16.61;86.57
141;BME280;65;48.778;9.160;2023-06-10T02:34:15;98119.75;;;16.75;86.51
141;BME280;65;48.778;9.160;2023-06-10T02:37:01;98126.16;;;16.63;86.02
141;BME280;65;48.778;9.160;2023-06-10T02:39:47;98121.78;;;16.52;84.86
141;BME280;65;48.778;9.160;2023-06-10T02:42:33;98128.09;;;16.51;86.96
141;BME280;65;48.778;9.160;2023-06-10T02:45:19;98131.31;;;16.45;86.19
141;BME280;65;48.778;9.160;2023-06-10T02:48:05;98130.88;;;16.40;86.41
141;BME280;65;48.778;9.160;2023-06-10T02:50:51;98141.00;;;16.46;88.26
141;BME280;65;48.778;9.160;2023-06-10T02:53:37;98146.03;;;16.39;90.01
141;BME280;65;48.778;9.160;2023-06-10T02:56:22;98134.22;;;16.32;89.21
141;BME280;65;48.778;9.160;2023-06-10T02:59:08;98137.63;;;16.44;88.83
141;BME280;65;48.778;9.160;2023-06-10T03:01:54;98132.13;;;16.36;89.52
141;BME280;65;48.778;9.160;2023-06-10T03:04:39;98137.28;;;16.28;86.34
141;BME280;65;48.778;9.160;2023-06-10T03:07:26;98138.53;;;16.24;85.87
141;BME280;65;48.778;9.160;2023-06-10T03:10:12;98141.47;;;16.21;86.64
141;BME280;65;48.778;9.160;2023-06-10T03:12:58;98136.97;;;16.21;87.55
141;BME280;65;48.778;9.160;2023-06-10T03:15:44;98145.13;;;16.20;88.27
141;BME280;65;48.778;9.160;2023-06-10T03:18:31;98138.31;;;16.16;87.23
141;BME280;65;48.778;9.160;2023-06-10T03:21:17;98147.31;;;16.14;86.05
141;BME280;65;48.778;9.160;2023-06-10T03:24:03;98149.53;;;16.09;86.52
141;BME280;65;48.778;9.160;2023-06-10T03:26:49;98156.09;;;16.05;89.16
141;BME280;65;48.778;9.160;2023-06-10T03:29:35;98168.00;;;16.01;88.39
141;BME280;65;48.778;9.160;2023-06-10T03:32:21;98169.97;;;15.99;88.51
141;BME280;65;48.778;9.160;2023-06-10T03:35:07;98170.22;;;15.96;88.14
141;BME280;65;48.778;9.160;2023-06-10T03:37:53;98164.03;;;15.96;89.29
141;BME280;65;48.778;9.160;2023-06-10T03:40:39;98167.56;;;15.96;88.36
141;BME280;65;48.778;9.160;2023-06-10T03:43:24;98170.81;;;16.00;89.01
141;BME280;65;48.778;9.160;2023-06-10T03:46:11;98167.88;;;16.03;88.20
141;BME280;65;48.778;9.160;2023-06-10T03:48:56;98174.75;;;16.05;88.38
141;BME280;65;48.778;9.160;2023-06-10T03:51:45;98177.28;;;16.07;87.43
141;BME280;65;48.778;9.160;2023-06-10T03:54:31;98180.16;;;16.15;87.33
141;BME280;65;48.778;9.160;2023-06-10T03:57:17;98178.66;;;16.22;88.58
141;BME280;65;48.778;9.160;2023-06-10T04:00:03;98186.09;;;16.19;88.05
141;BME280;65;48.778;9.160;2023-06-10T04:02:54;98176.56;;;16.26;88.64
141;BME280;65;48.778;9.160;2023-06-10T04:05:43;98190.75;;;16.26;89.49
141;BME280;65;48.778;9.160;2023-06-10T04:08:29;98191.03;;;16.23;88.20
141;BME280;65;48.778;9.160;2023-06-10T04:11:15;98183.03;;;16.23;87.89
141;BME280;65;48.778;9.160;2023-06-10T04:14:01;98185.44;;;16.26;88.15
141;BME280;65;48.778;9.160;2023-06-10T04:16:47;98181.66;;;16.29;88.28
141;BME280;65;48.778;9.160;2023-06-10T04:19:33;98176.31;;;16.29;86.61
141;BME280;65;48.778;9.160;2023-06-10T04:22:18;98186.44;;;16.35;86.00
141;BME280;65;48.778;9.160;2023-06-10T04:25:04;98185.38;;;16.47;85.30
141;BME280;65;48.778;9.160;2023-06-10T04:27:50;98190.31;;;16.52;89.05
141;BME280;65;48.778;9.160;2023-06-10T04:30:36;98193.28;;;16.58;87.29
141;BME280;65;48.778;9.160;2023-06-10T04:33:22;98189.84;;;16.67;88.26
141;BME280;65;48.778;9.160;2023-06-10T04:36:07;98194.84;;;16.82;84.74
141;BME280;65;48.778;9.160;2023-06-10T04:38:53;98186.97;;;16.90;87.29
141;BME280;65;48.778;9.160;2023-06-10T04:41:39;98197.13;;;16.96;87.48
141;BME280;65;48.778;9.160;2023-06-10T04:44:24;98199.38;;;17.10;86.93
141;BME280;65;48.778;9.160;2023-06-10T04:47:10;98193.94;;;17.21;85.03
141;BME280;65;48.778;9.160;2023-06-10T04:49:56;98202.28;;;17.37;83.72
141;BME280;65;48.778;9.160;2023-06-10T04:52:42;98194.13;;;17.49;82.57
141;BME280;65;48.778;9.160;2023-06-10T04:55:27;98202.03;;;17.69;82.75
141;BME280;65;48.778;9.160;2023-06-10T04:58:14;98202.00;;;17.89;84.44
141;BME280;65;48.778;9.160;2023-06-10T05:01:00;98200.41;;;18.25;80.82
141;BME280;65;48.778;9.160;2023-06-10T05:03:45;98203.28;;;18.60;79.64
141;BME280;65;48.778;9.160;2023-06-10T05:06:31;98203.31;;;18.88;76.71
141;BME280;65;48.778;9.160;2023-06-10T05:09:17;98202.78;;;19.57;72.92
141;BME280;65;48.778;9.160;2023-06-10T05:12:04;98203.16;;;20.41;66.78
141;BME280;65;48.778;9.160;2023-06-10T05:14:50;98203.31;;;21.42;63.61
141;BME280;65;48.778;9.160;2023-06-10T05:17:35;98202.72;;;22.21;60.07
141;BME280;65;48.778;9.160;2023-06-10T05:20:21;98201.94;;;22.84;59.10
141;BME280;65;48.778;9.160;2023-06-10T05:23:07;98206.50;;;23.54;56.51
141;BME280;65;48.778;9.160;2023-06-10T05:25:54;98196.16;;;23.65;50.82
141;BME280;65;48.778;9.160;2023-06-10T05:28:40;98203.44;;;24.63;51.44
141;BME280;65;48.778;9.160;2023-06-10T05:31:25;98200.81;;;24.84;52.30
141;BME280;65;48.778;9.160;2023-06-10T05:34:11;98211.69;;;25.14;50.43
141;BME280;65;48.778;9.160;2023-06-10T05:36:57;98205.19;;;25.44;46.48
141;BME280;65;48.778;9.160;2023-06-10T05:39:43;98208.56;;;25.32;50.22
141;BME280;65;48.778;9.160;2023-06-10T05:42:28;98214.41;;;25.50;47.13
141;BME280;65;48.778;9.160;2023-06-10T05:45:16;98213.88;;;25.97;47.67
141;BME280;65;48.778;9.160;2023-06-10T05:48:02;98211.81;;;26.21;44.81
141;BME280;65;48.778;9.160;2023-06-10T05:50:49;98208.69;;;26.66;46.06
141;BME280;65;48.778;9.160;2023-06-10T05:53:34;98211.53;;;26.93;45.01
141;BME280;65;48.778;9.160;2023-06-10T05:56:20;98212.09;;;26.54;45.70
141;BME280;65;48.778;9.160;2023-06-10T05:59:07;98221.19;;;27.36;45.17
141;BME280;65;48.778;9.160;2023-06-10T06:01:53;98216.66;;;27.57;40.92
141;BME280;65;48.778;9.160;2023-06-10T06:04:39;98222.34;;;27.68;42.73
141;BME280;65;48.778;9.160;2023-06-10T06:07:24;98220.16;;;27.37;44.76
141;BME280;65;48.778;9.160;2023-06-10T06:10:11;98212.88;;;28.58;43.09
141;BME280;65;48.778;9.160;2023-06-10T06:12:56;98219.53;;;29.02;39.72
141;BME280;65;48.778;9.160;2023-06-10T06:15:42;98211.78;;;29.64;37.32
141;BME280;65;48.778;9.160;2023-06-10T06:18:28;98219.59;;;29.47;37.47
141;BME280;65;48.778;9.160;2023-06-10T06:21:14;98224.31;;;29.71;37.47
141;BME280;65;48.778;9.160;2023-06-10T06:23:59;98208.56;;;30.68;35.38
141;BME280;65;48.778;9.160;2023-06-10T06:26:45;98215.09;;;30.85;34.77
141;BME280;65;48.778;9.160;2023-06-10T06:29:31;98215.69;;;31.05;33.93
141;BME280;65;48.778;9.160;2023-06-10T06:32:16;98220.59;;;30.29;38.52
141;BME280;65;48.778;9.160;2023-06-10T06:35:02;98213.56;;;29.32;36.63
141;BME280;65;48.778;9.160;2023-06-10T06:37:50;98218.94;;;29.89;39.67
141;BME280;65;48.778;9.160;2023-06-10T06:40:35;98219.09;;;30.58;36.09
141;BME280;65;48.778;9.160;2023-06-10T06:43:21;98230.28;;;30.25;34.57
141;BME280;65;48.778;9.160;2023-06-10T06:46:07;98220.09;;;30.38;35.36
141;BME280;65;48.778;9.160;2023-06-10T06:48:53;98219.25;;;30.38;35.31
141;BME280;65;48.778;9.160;2023-06-10T06:51:38;98225.88;;;30.98;33.83
141;BME280;65;48.778;9.160;2023-06-10T06:54:24;98221.91;;;30.94;35.39
141;BME280;65;48.778;9.160;2023-06-10T06:57:10;98223.59;;;31.13;36.24
141;BME280;65;48.778;9.160;2023-06-10T06:59:56;98219.13;;;31.56;35.65
141;BME280;65;48.778;9.160;2023-06-10T07:02:42;98224.34;;;31.02;34.01
141;BME280;65;48.778;9.160;2023-06-10T07:05:27;98230.19;;;32.09;35.30
141;BME280;65;48.778;9.160;2023-06-10T07:08:13;98226.63;;;32.50;33.73
141;BME280;65;48.778;9.160;2023-06-10T07:10:59;98223.38;;;33.47;29.83
141;BME280;65;48.778;9.160;2023-06-10T07:13:45;98227.03;;;33.52;29.71
141;BME280;65;48.778;9.160;2023-06-10T07:16:30;98218.22;;;33.50;29.56
141;BME280;65;48.778;9.160;2023-06-10T07:19:16;98229.72;;;31.34;35.43
141;BME280;65;48.778;9.160;2023-06-10T07:22:02;98230.91;;;32.16;32.96
141;BME280;65;48.778;9.160;2023-06-10T07:24:48;98222.13;;;32.79;32.38
141;BME280;65;48.778;9.160;2023-06-10T07:27:34;98212.47;;;33.12;33.35
141;BME280;65;48.778;9.160;2023-06-10T07:30:21;98216.06;;;32.89;32.89
141;BME280;65;48.778;9.160;2023-06-10T07:33:07;98210.81;;;32.87;31.32
141;BME280;65;48.778;9.160;2023-06-10T07:35:53;98213.66;;;34.58;28.78
141;BME280;65;48.778;9.160;2023-06-10T07:38:39;98213.75;;;34.01;28.93
141;BME280;65;48.778;9.160;2023-06-10T07:41:26;98212.53;;;33.80;29.73
141;BME280;65;48.778;9.160;2023-06-10T07:44:12;98210.69;;;32.94;32.01
141;BME280;65;48.778;9.160;2023-06-10T07:46:58;98219.19;;;33.56;30.87
141;BME280;65;48.778;9.160;2023-06-10T07:49:44;98219.25;;;33.73;29.98
141;BME280;65;48.778;9.160;2023-06-10T07:52:30;98217.78;;;33.53;30.04
141;BME280;65;48.778;9.160;2023-06-10T07:55:16;98211.88;;;32.86;33.44
141;BME280;65;48.778;9.160;2023-06-10T07:58:02;98215.69;;;33.09;32.71
141;BME280;65;48.778;9.160;2023-06-10T08:00:48;98223.66;;;33.74;30.84
141;BME280;65;48.778;9.160;2023-06-10T08:03:34;98215.66;;;34.63;29.35
141;BME280;65;48.778;9.160;2023-06-10T08:06:19;98219.16;;;34.41;29.93
141;BME280;65;48.778;9.160;2023-06-10T08:09:05;98220.22;;;35.46;28.70
141;BME280;65;48.778;9.160;2023-06-10T08:11:51;98214.53;;;36.60;29.07
141;BME280;65;48.778;9.160;2023-06-10T08:14:37;98218.00;;;36.19;26.89
141;BME280;65;48.778;9.160;2023-06-10T08:17:22;98217.66;;;34.50;28.83
141;BME280;65;48.778;9.160;2023-06-10T08:20:09;98208.91;;;34.20;30.97
141;BME280;65;48.778;9.160;2023-06-10T08:22:55;98209.59;;;34.94;27.32
141;BME280;65;48.778;9.160;2023-06-10T08:25:40;98209.38;;;32.50;30.62
141;BME280;65;48.778;9.160;2023-06-10T08:28:26;98206.59;;;33.72;29.00
141;BME280;65;48.778;9.160;2023-06-10T08:31:12;98204.03;;;34.55;27.90
141;BME280;65;48.778;9.160;2023-06-10T08:33:58;98205.19;;;35.15;27.33
141;BME280;65;48.778;9.160;2023-06-10T08:36:43;98214.56;;;34.64;28.54
141;BME280;65;48.778;9.160;2023-06-10T08:39:30;98209.59;;;36.30;25.93
141;BME280;65;48.778;9.160;2023-06-10T08:42:24;98209.72;;;35.43;27.06
141;BME280;65;48.778;9.160;2023-06-10T08:45:16;98213.16;;;34.95;27.50
141;BME280;65;48.778;9.160;2023-06-10T08:48:03;98210.88;;;36.23;24.96
141;BME280;65;48.778;9.160;2023-06-10T08:50:52;98207.81;;;35.05;28.65
141;BME280;65;48.778;9.160;2023-06-10T08:54:04;98202.06;;;35.45;29.88
141;BME280;65;48.778;9.160;2023-06-10T08:56:51;98203.63;;;34.02;29.25
141;BME280;65;48.778;9.160;2023-06-10T08:59:39;98205.81;;;36.09;27.51
141;BME280;65;48.778;9.160;2023-06-10T09:02:27;98201.78;;;36.49;24.60
141;BME280;65;48.778;9.160;2023-06-10T09:05:13;98193.50;;;35.41;26.65
141;BME280;65;48.778;9.160;2023-06-10T09:08:00;98200.41;;;35.71;27.99
141;BME280;65;48.778;9.160;2023-06-10T09:10:47;98198.06;;;36.06;26.43
141;BME280;65;48.778;9.160;2023-06-10T09:13:32;98195.94;;;35.65;25.53
141;BME280;65;48.778;9.160;2023-06-10T09:16:18;98194.97;;;35.98;27.14
141;BME280;65;48.778;9.160;2023-06-10T09:19:04;98195.09;;;35.20;27.56
141;BME280;65;48.778;9.160;2023-06-10T09:21:53;98200.81;;;36.06;25.60
141;BME280;65;48.778;9.160;2023-06-10T09:24:41;98182.22;;;34.49;26.81
141;BME280;65;48.778;9.160;2023-06-10T09:27:29;98187.63;;;35.16;27.81
141;BME280;65;48.778;9.160;2023-06-10T09:30:34;98191.97;;;35.12;28.45
141;BME280;65;48.778;9.160;2023-06-10T09:33:24;98184.34;;;35.19;26.73
141;BME280;65;48.778;9.160;2023-06-10T09:36:21;98189.81;;;36.06;26.37
141;BME280;65;48.778;9.160;2023-06-10T09:39:15;98189.56;;;36.40;25.56
141;BME280;65;48.778;9.160;2023-06-10T09:42:01;98174.84;;;36.56;26.03
141;BME280;65;48.778;9.160;2023-06-10T09:44:53;98178.72;;;36.60;25.94
141;BME280;65;48.778;9.160;2023-06-10T09:47:39;98171.66;;;36.74;25.25
141;BME280;65;48.778;9.160;2023-06-10T09:50:25;98182.78;;;36.48;25.64
141;BME280;65;48.778;9.160;2023-06-10T09:53:11;98173.84;;;36.72;24.90
141;BME280;65;48.778;9.160;2023-06-10T09:55:58;98172.59;;;36.21;26.06
141;BME280;65;48.778;9.160;2023-06-10T09:58:53;98172.13;;;36.61;26.27
141;BME280;65;48.778;9.160;2023-06-10T10:01:39;98167.16;;;36.58;25.52
141;BME280;65;48.778;9.160;2023-06-10T10:04:25;98163.94;;;38.02;26.24
141;BME280;65;48.778;9.160;2023-06-10T10:07:11;98166.19;;;38.45;24.24
141;BME280;65;48.778;9.160;2023-06-10T10:09:57;98173.88;;;36.08;25.06
141;BME280;65;48.778;9.160;2023-06-10T10:12:46;98161.94;;;37.04;24.51
141;BME280;65;48.778;9.160;2023-06-10T10:15:32;98158.81;;;36.48;25.23
141;BME280;65;48.778;9.160;2023-06-10T10:18:19;98166.13;;;38.96;22.75
141;BME280;65;48.778;9.160;2023-06-10T10:21:12;98162.56;;;36.05;25.20
141;BME280;65;48.778;9.160;2023-06-10T10:24:09;98153.97;;;37.08;23.25
141;BME280;65;48.778;9.160;2023-06-10T10:26:59;98149.63;;;36.37;23.96
141;BME280;65;48.778;9.160;2023-06-10T10:29:47;98148.19;;;37.09;25.13
141;BME280;65;48.778;9.160;2023-06-10T10:32:38;98147.94;;;38.14;23.10
141;BME280;65;48.778;9.160;2023-06-10T10:35:26;98138.00;;;38.48;22.73
141;BME280;65;48.778;9.160;2023-06-10T10:38:12;98149.03;;;38.89;21.74
141;BME280;65;48.778;9.160;2023-06-10T10:40:58;98150.47;;;39.46;21.40
141;BME280;65;48.778;9.160;2023-06-10T10:43:46;98146.22;;;39.09;22.15
141;BME280;65;48.778;9.160;2023-06-10T10:46:41;98135.63;;;39.21;21.12
141;BME280;65;48.778;9.160;2023-06-10T10:49:27;98137.03;;;36.15;24.50
141;BME280;65;48.778;9.160;2023-06-10T10:52:14;98143.13;;;36.96;24.28
141;BME280;65;48.778;9.160;2023-06-10T10:55:01;98138.69;;;37.52;23.07
141;BME280;65;48.778;9.160;2023-06-10T11:00:49;98131.25;;;39.15;20.76
141;BME280;65;48.778;9.160;2023-06-10T11:03:42;98136.88;;;38.59;22.01
141;BME280;65;48.778;9.160;2023-06-10T11:06:29;98135.88;;;36.37;25.63
141;BME280;65;48.778;9.160;2023-06-10T11:09:27;98135.06;;;34.52;27.57
141;BME280;65;48.778;9.160;2023-06-10T11:12:22;98136.47;;;35.59;26.17
141;BME280;65;48.778;9.160;2023-06-10T11:15:08;98128.66;;;36.68;24.97
141;BME280;65;48.778;9.160;2023-06-10T11:21:02;98128.34;;;36.65;26.19
141;BME280;65;48.778;9.160;2023-06-10T11:23:50;98134.81;;;35.58;24.77
141;BME280;65;48.778;9.160;2023-06-10T11:26:44;98126.06;;;36.20;26.44
141;BME280;65;48.778;9.160;2023-06-10T11:29:30;98121.44;;;37.04;26.44
141;BME280;65;48.778;9.160;2023-06-10T11:32:17;98124.59;;;37.33;23.42
141;BME280;65;48.778;9.160;2023-06-10T11:35:03;98117.31;;;38.31;22.95
141;BME280;65;48.778;9.160;2023-06-10T11:37:49;98115.69;;;37.21;25.23
141;BME280;65;48.778;9.160;2023-06-10T11:40:37;98111.84;;;37.17;25.04
141;BME280;65;48.778;9.160;2023-06-10T11:43:23;98119.25;;;35.68;26.31
141;BME280;65;48.778;9.160;2023-06-10T11:46:09;98118.03;;;33.71;28.45
141;BME280;65;48.778;9.160;2023-06-10T11:48:56;98108.63;;;33.10;28.89
141;BME280;65;48.778;9.160;2023-06-10T11:51:42;98105.13;;;34.89;26.55
141;BME280;65;48.778;9.160;2023-06-10T11:54:34;98095.47;;;36.11;25.84
141;BME280;65;48.778;9.160;2023-06-10T11:57:20;98111.47;;;35.60;26.27
141;BME280;65;48.778;9.160;2023-06-10T12:00:06;98101.06;;;35.35;26.03
141;BME280;65;48.778;9.160;2023-06-10T12:02:57;98111.31;;;35.01;26.04
141;BME280;65;48.778;9.160;2023-06-10T12:06:11;98106.88;;;32.92;30.66
141;BME280;65;48.778;9.160;2023-06-10T12:08:56;98100.56;;;31.98;30.41
141;BME280;65;48.778;9.160;2023-06-10T12:11:43;98101.66;;;32.79;28.98
141;BME280;65;48.778;9.160;2023-06-10T12:17:43;98099.97;;;35.36;29.18
141;BME280;65;48.778;9.160;2023-06-10T12:20:31;98102.19;;;35.39;26.00
141;BME280;65;48.778;9.160;2023-06-10T12:23:20;98095.38;;;35.74;24.81
141;BME280;65;48.778;9.160;2023-06-10T12:26:08;98098.28;;;34.92;26.82
141;BME280;65;48.778;9.160;2023-06-10T12:29:00;98095.78;;;33.39;27.88
141;BME280;65;48.778;9.160;2023-06-10T12:32:03;98088.97;;;32.50;28.83
141;BME280;65;48.778;9.160;2023-06-10T12:35:02;98091.44;;;32.63;31.50
141;BME280;65;48.778;9.160;2023-06-10T12:41:04;98093.91;;;31.23;29.70
141;BME280;65;48.778;9.160;2023-06-10T12:43:49;98096.22;;;30.28;31.99
141;BME280;65;48.778;9.160;2023-06-10T12:46:37;98093.03;;;29.43;33.77
141;BME280;65;48.778;9.160;2023-06-10T12:49:23;98102.97;;;29.31;34.16
141;BME280;65;48.778;9.160;2023-06-10T12:52:09;98097.56;;;29.24;34.43
141;BME280;65;48.778;9.160;2023-06-10T12:54:55;98089.88;;;29.52;33.25
141;BME280;65;48.778;9.160;2023-06-10T12:57:48;98093.47;;;30.89;32.29
141;BME280;65;48.778;9.160;2023-06-10T13:00:34;98088.97;;;32.38;29.82
141;BME280;65;48.778;9.160;2023-06-10T13:03:20;98085.91;;;33.26;28.11
141;BME280;65;48.778;9.160;2023-06-10T13:06:06;98081.16;;;33.33;28.40
141;BME280;65;48.778;9.160;2023-06-10T13:08:52;98075.00;;;32.16;30.73
141;BME280;65;48.778;9.160;2023-06-10T13:11:38;98075.81;;;31.82;30.06
141;BME280;65;48.778;9.160;2023-06-10T13:14:24;98070.81;;;31.37;30.20
141;BME280;65;48.778;9.160;2023-06-10T13:17:10;98073.72;;;30.32;35.38
141;BME280;65;48.778;9.160;2023-06-10T13:19:56;98069.16;;;30.01;33.73
141;BME280;65;48.778;9.160;2023-06-10T13:22:43;98080.22;;;30.13;32.98
141;BME280;65;48.778;9.160;2023-06-10T13:25:30;98074.19;;;30.47;32.93
141;BME280;65;48.778;9.160;2023-06-10T13:28:16;98071.16;;;31.40;32.34
141;BME280;65;48.778;9.160;2023-06-10T13:31:02;98066.94;;;31.68;32.83
141;BME280;65;48.778;9.160;2023-06-10T13:34:03;98058.13;;;31.96;32.15
141;BME280;65;48.778;9.160;2023-06-10T13:36:49;98059.56;;;32.57;29.65
141;BME280;65;48.778;9.160;2023-06-10T13:39:35;98052.88;;;32.64;29.99
141;BME280;65;48.778;9.160;2023-06-10T13:42:21;98050.56;;;32.85;28.27
141;BME280;65;48.778;9.160;2023-06-10T13:45:07;98048.22;;;32.65;29.16
141;BME280;65;48.778;9.160;2023-06-10T13:47:53;98046.59;;;32.29;30.30
141;BME280;65;48.778;9.160;2023-06-10T13:50:44;98053.00;;;31.46;30.12
141;BME280;65;48.778;9.160;2023-06-10T13:53:31;98049.75;;;30.77;32.34
141;BME280;65;48.778;9.160;2023-06-10T13:56:17;98054.50;;;30.02;34.07
141;BME280;65;48.778;9.160;2023-06-10T13:59:04;98051.47;;;29.85;35.74
141;BME280;65;48.778;9.160;2023-06-10T14:01:50;98052.59;;;29.53;32.77
141;BME280;65;48.778;9.160;2023-06-10T14:04:36;98041.88;;;29.20;33.70
141;BME280;65;48.778;9.160;2023-06-10T14:07:21;98043.22;;;29.04;33.44
141;BME280;65;48.778;9.160;2023-06-10T14:10:07;98040.44;;;29.17;32.77
141;BME280;65;48.778;9.160;2023-06-10T14:12:58;98035.69;;;29.69;33.37
141;BME280;65;48.778;9.160;2023-06-10T14:15:45;98038.84;;;29.91;31.76
141;BME280;65;48.778;9.160;2023-06-10T14:18:32;98032.81;;;30.50;32.51
141;BME280;65;48.778;9.160;2023-06-10T14:21:17;98030.59;;;30.96;31.17
141;BME280;65;48.778;9.160;2023-06-10T14:24:03;98026.84;;;31.27;33.52
141;BME280;65;48.778;9.160;2023-06-10T14:26:49;98029.63;;;31.50;33.09
141;BME280;65;48.778;9.160;2023-06-10T14:29:35;98033.28;;;31.97;28.93
141;BME280;65;48.778;9.160;2023-06-10T14:32:21;98031.13;;;31.88;29.08
141;BME280;65;48.778;9.160;2023-06-10T14:35:06;98022.63;;;31.66;30.24
141;BME280;65;48.778;9.160;2023-06-10T14:37:52;98028.56;;;30.91;30.42
141;BME280;65;48.778;9.160;2023-06-10T14:40:38;98033.66;;;30.88;32.68
141;BME280;65;48.778;9.160;2023-06-10T14:43:24;98033.41;;;30.34;31.83
141;BME280;65;48.778;9.160;2023-06-10T14:46:09;98023.38;;;30.71;31.26
141;BME280;65;48.778;9.160;2023-06-10T14:48:55;98012.72;;;31.41;29.99
141;BME280;65;48.778;9.160;2023-06-10T14:51:41;98012.44;;;31.73;30.80
141;BME280;65;48.778;9.160;2023-06-10T14:54:27;98016.84;;;31.74;32.11
141;BME280;65;48.778;9.160;2023-06-10T14:57:12;98018.91;;;31.49;31.22
141;BME280;65;48.778;9.160;2023-06-10T14:59:58;98019.72;;;31.26;30.57
141;BME280;65;48.778;9.160;2023-06-10T15:02:44;98023.50;;;30.76;31.60
141;BME280;65;48.778;9.160;2023-06-10T15:05:30;98017.13;;;30.28;32.05
141;BME280;65;48.778;9.160;2023-06-10T15:08:16;98013.50;;;29.66;33.12
141;BME280;65;48.778;9.160;2023-06-10T15:11:01;98017.50;;;29.63;33.25
141;BME280;65;48.778;9.160;2023-06-10T15:13:48;98015.00;;;29.62;33.50
141;BME280;65;48.778;9.160;2023-06-10T15:16:33;98019.19;;;29.64;34.26
141;BME280;65;48.778;9.160;2023-06-10T15:19:19;98019.84;;;28.83;35.00
141;BME280;65;48.778;9.160;2023-06-10T15:22:05;98022.44;;;28.65;36.38
141;BME280;65;48.778;9.160;2023-06-10T15:24:51;98022.13;;;28.48;36.45
141;BME280;65;48.778;9.160;2023-06-10T15:27:36;98008.13;;;28.31;35.88
141;BME280;65;48.778;9.160;2023-06-10T15:30:22;98009.63;;;28.34;36.55
141;BME280;65;48.778;9.160;2023-06-10T15:33:08;98011.44;;;28.47;35.42
141;BME280;65;48.778;9.160;2023-06-10T15:35:54;98006.06;;;28.78;35.96
141;BME280;65;48.778;9.160;2023-06-10T15:38:40;98009.38;;;28.93;36.95
141;BME280;65;48.778;9.160;2023-06-10T15:41:25;98007.28;;;28.89;34.13
141;BME280;65;48.778;9.160;2023-06-10T15:44:12;98005.53;;;29.08;33.32
141;BME280;65;48.778;9.160;2023-06-10T15:46:58;98002.41;;;29.04;34.43
141;BME280;65;48.778;9.160;2023-06-10T15:49:43;97999.66;;;29.11;34.67
141;BME280;65;48.778;9.160;2023-06-10T15:52:29;97995.47;;;29.08;34.50
141;BME280;65;48.778;9.160;2023-06-10T15:55:15;97990.47;;;29.05;35.06
141;BME280;65;48.778;9.160;2023-06-10T15:58:01;97994.50;;;28.96;35.01
141;BME280;65;48.778;9.160;2023-06-10T16:00:49;97997.75;;;29.11;35.64